createdAt,value
2018-09-15T00:02:00.936Z,23.40
2018-09-15T00:04:28.632Z,21.67
2018-09-15T00:06:56.268Z,24.40
2018-09-15T00:09:23.958Z,22.00
2018-09-15T00:11:51.637Z,17.63
2018-09-15T00:14:19.311Z,18.30
2018-09-15T00:16:46.828Z,21.83
2018-09-15T00:19:14.514Z,23.07
2018-09-15T00:21:42.243Z,21.60
2018-09-15T00:24:09.778Z,21.20
2018-09-15T00:26:37.498Z,23.43
2018-09-15T00:29:05.173Z,22.13
2018-09-15T00:31:32.912Z,26.87
2018-09-15T00:34:00.607Z,21.43
2018-09-15T00:36:28.207Z,24.47
2018-09-15T00:38:55.895Z,26.03
2018-09-15T00:41:23.392Z,21.13
2018-09-15T00:43:51.098Z,24.87
2018-09-15T00:46:18.802Z,21.97
2018-09-15T00:48:46.441Z,23.27
2018-09-15T00:51:14.102Z,18.00
2018-09-15T00:53:41.769Z,23.87
2018-09-15T00:56:09.429Z,21.17
2018-09-15T00:58:37.162Z,19.27
2018-09-15T01:01:04.886Z,22.10
2018-09-15T01:03:32.526Z,19.83
2018-09-15T01:06:00.192Z,19.17
2018-09-15T01:08:27.879Z,19.53
2018-09-15T01:10:55.563Z,18.23
2018-09-15T01:13:23.197Z,22.37
2018-09-15T01:15:50.936Z,19.80
2018-09-15T01:18:18.636Z,20.57
2018-09-15T01:20:46.318Z,19.10
2018-09-15T01:23:13.993Z,22.60
2018-09-15T01:25:41.543Z,23.47
2018-09-15T01:28:09.238Z,21.77
2018-09-15T01:30:36.969Z,22.17
2018-09-15T01:33:04.672Z,20.10
2018-09-15T01:35:32.347Z,19.27
2018-09-15T01:38:00.050Z,24.73
2018-09-15T01:40:27.762Z,25.30
2018-09-15T01:42:55.486Z,20.93
2018-09-15T01:45:23.216Z,20.60
2018-09-15T01:47:50.888Z,23.23
2018-09-15T01:50:18.527Z,20.97
2018-09-15T01:52:46.187Z,21.43
2018-09-15T01:55:13.846Z,22.47
2018-09-15T01:57:41.567Z,21.10
2018-09-15T02:00:09.259Z,20.13
2018-09-15T02:02:36.932Z,21.10
2018-09-15T02:05:05.002Z,18.50
2018-09-15T02:07:32.696Z,18.63
2018-09-15T02:10:00.385Z,18.07
2018-09-15T02:12:28.243Z,20.80
2018-09-15T02:14:55.964Z,18.13
2018-09-15T02:17:23.612Z,17.17
2018-09-15T02:19:51.288Z,17.57
2018-09-15T02:22:18.974Z,16.40
2018-09-15T02:24:46.647Z,20.17
2018-09-15T02:27:14.344Z,17.13
2018-09-15T02:29:42.026Z,16.97
2018-09-15T02:32:09.745Z,18.67
2018-09-15T02:34:37.442Z,16.67
2018-09-15T02:37:05.204Z,17.53
2018-09-15T02:39:32.921Z,17.00
2018-09-15T02:42:00.640Z,14.33
2018-09-15T02:44:28.322Z,15.20
2018-09-15T02:46:56.003Z,14.77
2018-09-15T02:49:23.630Z,16.80
2018-09-15T02:51:51.523Z,14.37
2018-09-15T02:54:19.172Z,17.27
2018-09-15T02:56:46.833Z,16.57
2018-09-15T02:59:14.758Z,14.50
2018-09-15T03:01:42.465Z,15.37
2018-09-15T03:04:10.148Z,14.03
2018-09-15T03:06:37.812Z,14.40
2018-09-15T03:09:08.038Z,15.43
2018-09-15T03:11:35.723Z,17.13
2018-09-15T03:14:03.370Z,13.60
2018-09-15T03:16:31.083Z,14.27
2018-09-15T03:18:58.760Z,14.10
2018-09-15T03:21:26.418Z,16.83
2018-09-15T03:23:54.104Z,15.33
2018-09-15T03:26:21.783Z,15.90
2018-09-15T03:28:49.489Z,16.03
2018-09-15T03:31:17.165Z,17.13
2018-09-15T03:33:44.813Z,15.43
2018-09-15T03:36:12.479Z,14.70
2018-09-15T03:38:40.120Z,15.30
2018-09-15T03:41:07.655Z,18.50
2018-09-15T03:43:35.309Z,16.40
2018-09-15T03:46:02.938Z,15.53
2018-09-15T03:48:30.508Z,16.33
2018-09-15T03:50:58.179Z,15.77
2018-09-15T03:53:25.961Z,15.67
2018-09-15T03:55:53.935Z,15.73
2018-09-15T03:58:21.635Z,15.67
2018-09-15T04:00:52.030Z,14.73
2018-09-15T04:03:20.078Z,17.30
2018-09-15T04:05:47.776Z,15.63
2018-09-15T04:08:15.496Z,16.87
2018-09-15T04:10:43.491Z,18.03
2018-09-15T04:13:11.197Z,15.37
2018-09-15T04:15:38.921Z,16.57
2018-09-15T04:18:06.644Z,16.70
2018-09-15T04:20:34.369Z,14.07
2018-09-15T04:23:02.063Z,16.90
2018-09-15T04:25:29.763Z,16.37
2018-09-15T04:27:57.420Z,18.00
2018-09-15T04:30:25.105Z,14.97
2018-09-15T04:32:52.626Z,16.73
2018-09-15T04:35:20.300Z,16.17
2018-09-15T04:37:47.942Z,15.23
2018-09-15T04:40:15.607Z,18.10
2018-09-15T04:42:43.259Z,17.60
2018-09-15T04:45:10.924Z,13.33
2018-09-15T04:47:38.572Z,14.57
2018-09-15T04:50:06.314Z,17.50
2018-09-15T04:52:34.013Z,15.67
2018-09-15T04:55:01.725Z,16.47
2018-09-15T04:57:29.925Z,16.17
2018-09-15T04:59:57.629Z,14.37
2018-09-15T05:02:25.333Z,15.00
2018-09-15T05:04:53.013Z,15.63
2018-09-15T05:07:20.689Z,13.80
2018-09-15T05:09:48.336Z,13.30
2018-09-15T05:12:16.088Z,16.30
2018-09-15T05:14:43.698Z,15.70
2018-09-15T05:17:11.391Z,13.20
2018-09-15T05:19:39.044Z,14.07
2018-09-15T05:22:06.858Z,12.30
2018-09-15T05:24:34.559Z,13.90
2018-09-15T05:27:02.226Z,12.67
2018-09-15T05:29:29.922Z,15.37
2018-09-15T05:31:57.565Z,12.83
2018-09-15T05:34:25.291Z,13.37
2018-09-15T05:36:52.935Z,13.77
2018-09-15T05:39:20.649Z,15.07
2018-09-15T05:41:48.381Z,12.43
2018-09-15T05:44:16.109Z,17.77
2018-09-15T05:46:43.799Z,15.43
2018-09-15T05:49:11.501Z,14.50
2018-09-15T05:51:39.053Z,14.33
2018-09-15T05:54:06.777Z,14.90
2018-09-15T05:56:34.505Z,15.90
2018-09-15T05:59:02.184Z,14.67
2018-09-15T06:01:30.001Z,12.90
2018-09-15T06:03:57.714Z,14.53
2018-09-15T06:06:25.472Z,16.03
2018-09-15T06:08:53.019Z,14.07
2018-09-15T06:11:20.721Z,16.30
2018-09-15T06:13:48.468Z,14.60
2018-09-15T06:16:16.101Z,13.97
2018-09-15T06:18:43.750Z,14.37
2018-09-15T06:21:11.509Z,14.87
2018-09-15T06:23:39.292Z,14.90
2018-09-15T06:26:07.306Z,13.40
2018-09-15T06:28:35.359Z,12.33
2018-09-15T06:31:03.173Z,12.17
2018-09-15T06:33:30.784Z,14.10
2018-09-15T06:35:58.507Z,14.67
2018-09-15T06:38:26.215Z,14.90
2018-09-15T06:40:53.915Z,14.23
2018-09-15T06:43:21.504Z,15.70
2018-09-15T06:45:49.304Z,14.90
2018-09-15T06:48:16.873Z,12.87
2018-09-15T06:50:44.600Z,15.00
2018-09-15T06:53:12.240Z,13.87
2018-09-15T06:55:39.917Z,13.20
2018-09-15T06:58:07.691Z,13.53
2018-09-15T07:00:36.366Z,14.17
2018-09-15T07:03:04.109Z,13.23
2018-09-15T07:05:31.984Z,12.77
2018-09-15T07:07:59.765Z,14.70
2018-09-15T07:10:27.505Z,12.37
2018-09-15T07:12:55.492Z,14.07
2018-09-15T07:15:23.163Z,13.10
2018-09-15T07:17:50.807Z,13.00
2018-09-15T07:20:18.359Z,11.53
2018-09-15T07:22:46.056Z,13.63
2018-09-15T07:25:13.762Z,13.57
2018-09-15T07:27:41.447Z,13.30
2018-09-15T07:30:09.145Z,12.83
2018-09-15T07:32:36.814Z,11.47
2018-09-15T07:35:04.635Z,11.40
2018-09-15T07:37:32.318Z,9.60
2018-09-15T07:40:00.036Z,10.63
2018-09-15T07:42:27.724Z,10.33
2018-09-15T07:44:55.402Z,10.33
2018-09-15T07:47:23.102Z,9.93
2018-09-15T07:49:50.795Z,10.57
2018-09-15T07:52:18.497Z,11.00
2018-09-15T07:54:46.157Z,10.70
2018-09-15T07:57:13.866Z,11.97
2018-09-15T07:59:41.542Z,10.53
2018-09-15T08:02:14.650Z,9.40
2018-09-15T08:04:42.220Z,9.80
2018-09-15T08:07:09.896Z,9.83
2018-09-15T08:09:37.535Z,9.50
2018-09-15T08:12:05.281Z,8.27
2018-09-15T08:14:32.962Z,8.23
2018-09-15T08:17:00.564Z,8.17
2018-09-15T08:19:28.219Z,7.57
2018-09-15T08:21:55.970Z,6.43
2018-09-15T08:24:23.653Z,6.50
2018-09-15T08:26:51.322Z,6.53
2018-09-15T08:29:18.991Z,6.37
2018-09-15T08:31:46.692Z,5.63
2018-09-15T08:34:14.375Z,5.47
2018-09-15T08:36:42.116Z,6.20
2018-09-15T08:39:10.186Z,5.20
2018-09-15T08:41:37.995Z,6.17
2018-09-15T08:44:05.931Z,7.13
2018-09-15T08:46:33.671Z,8.20
2018-09-15T08:49:01.408Z,7.33
2018-09-15T08:51:29.088Z,6.50
2018-09-15T08:53:56.816Z,7.27
2018-09-15T08:56:24.500Z,7.17
2018-09-15T08:58:52.276Z,8.13
2018-09-15T09:01:19.917Z,6.43
2018-09-15T09:03:47.840Z,6.63
2018-09-15T09:06:15.486Z,6.10
2018-09-15T09:08:43.073Z,5.20
2018-09-15T09:11:10.771Z,6.60
2018-09-15T09:16:12.749Z,6.97
2018-09-15T09:18:40.480Z,6.27
2018-09-15T09:21:08.205Z,5.73
2018-09-15T09:23:35.915Z,7.07
2018-09-15T09:26:03.818Z,6.90
2018-09-15T09:28:31.431Z,6.53
2018-09-15T09:30:59.001Z,6.40
2018-09-15T09:33:26.651Z,6.03
2018-09-15T09:35:54.400Z,5.80
2018-09-15T09:38:22.728Z,6.10
2018-09-15T09:40:50.417Z,5.77
2018-09-15T09:43:18.262Z,6.50
2018-09-15T09:45:45.974Z,6.40
2018-09-15T09:48:13.677Z,6.20
2018-09-15T09:50:41.395Z,6.27
2018-09-15T09:53:09.077Z,5.50
2018-09-15T09:55:36.770Z,6.10
2018-09-15T09:58:04.944Z,4.80
2018-09-15T10:00:38.144Z,5.60
2018-09-15T10:03:05.940Z,5.30
2018-09-15T10:05:33.686Z,5.43
2018-09-15T10:08:01.296Z,6.63
2018-09-15T10:10:28.939Z,5.40
2018-09-15T10:12:56.642Z,5.53
2018-09-15T10:15:24.305Z,4.07
2018-09-15T10:17:51.961Z,4.83
2018-09-15T10:20:19.492Z,4.13
2018-09-15T10:22:47.243Z,5.00
2018-09-15T10:25:14.966Z,4.53
2018-09-15T10:27:42.563Z,4.40
2018-09-15T10:30:10.132Z,4.40
2018-09-15T10:32:37.857Z,4.40
2018-09-15T10:35:05.562Z,4.80
2018-09-15T10:37:33.315Z,3.90
2018-09-15T10:40:00.957Z,6.13
2018-09-15T10:42:28.701Z,4.73
2018-09-15T10:44:56.394Z,5.30
2018-09-15T10:47:24.700Z,4.93
2018-09-15T10:49:52.457Z,4.50
2018-09-15T10:52:20.205Z,4.80
2018-09-15T10:54:47.840Z,4.60
2018-09-15T10:57:15.572Z,5.27
2018-09-15T10:59:43.263Z,4.97
2018-09-15T11:02:13.442Z,6.00
2018-09-15T11:04:41.992Z,5.23
2018-09-15T11:07:09.705Z,5.33
2018-09-15T11:09:37.462Z,4.20
2018-09-15T11:12:05.133Z,5.73
2018-09-15T11:14:32.891Z,5.33
2018-09-15T11:17:00.599Z,5.57
2018-09-15T11:19:28.352Z,5.70
2018-09-15T11:21:56.039Z,5.50
2018-09-15T11:24:23.761Z,5.37
2018-09-15T11:26:51.496Z,5.90
2018-09-15T11:29:19.252Z,5.78
2018-09-15T11:31:46.821Z,4.30
2018-09-15T11:34:14.569Z,4.97
2018-09-15T11:36:42.305Z,4.58
2018-09-15T11:39:11.433Z,4.87
2018-09-15T11:41:39.311Z,5.13
2018-09-15T11:44:06.982Z,3.90
2018-09-15T11:46:34.698Z,4.47
2018-09-15T11:49:02.384Z,4.43
2018-09-15T11:51:30.123Z,3.70
2018-09-15T11:53:57.876Z,4.23
2018-09-15T11:56:25.458Z,4.07
2018-09-15T11:58:53.162Z,4.10
2018-09-15T12:01:20.864Z,3.43
2018-09-15T12:03:48.614Z,3.77
2018-09-15T12:06:16.373Z,3.80
2018-09-15T12:08:44.087Z,3.93
2018-09-15T12:11:11.883Z,3.03
2018-09-15T12:13:39.608Z,3.70
2018-09-15T12:16:07.833Z,4.00
2018-09-15T12:18:35.608Z,4.03
2018-09-15T12:21:03.276Z,4.20
2018-09-15T12:23:31.401Z,4.00
2018-09-15T12:25:59.084Z,4.27
2018-09-15T12:28:26.840Z,4.63
2018-09-15T12:30:54.541Z,3.70
2018-09-15T12:33:22.244Z,3.40
2018-09-15T12:35:49.926Z,3.83
2018-09-15T12:38:17.631Z,3.53
2018-09-15T12:40:45.337Z,3.52
2018-09-15T12:43:12.906Z,2.80
2018-09-15T12:45:40.631Z,2.97
2018-09-15T12:48:08.369Z,3.37
2018-09-15T12:50:36.109Z,4.15
2018-09-15T12:53:03.818Z,2.80
2018-09-15T12:55:31.408Z,3.30
2018-09-15T12:57:59.090Z,3.35
2018-09-15T13:00:26.781Z,3.20
2018-09-15T13:02:54.493Z,3.47
2018-09-15T13:05:22.261Z,4.03
2018-09-15T13:07:49.943Z,3.73
2018-09-15T13:10:17.608Z,3.70
2018-09-15T13:12:45.344Z,3.27
2018-09-15T13:15:12.988Z,2.23
2018-09-15T13:17:40.546Z,2.47
2018-09-15T13:20:08.224Z,2.60
2018-09-15T13:22:35.934Z,2.20
2018-09-15T13:25:03.769Z,2.50
2018-09-15T13:27:31.462Z,2.80
2018-09-15T13:29:59.269Z,3.57
2018-09-15T13:32:26.888Z,3.23
2018-09-15T13:34:54.623Z,3.20
2018-09-15T13:37:22.353Z,2.67
2018-09-15T13:39:50.065Z,3.00
2018-09-15T13:42:17.648Z,2.95
2018-09-15T13:44:45.321Z,2.65
2018-09-15T13:47:13.052Z,2.58
2018-09-15T13:49:40.696Z,2.40
2018-09-15T13:52:08.452Z,2.37
2018-09-15T13:54:36.132Z,2.50
2018-09-15T13:57:03.774Z,2.15
2018-09-15T13:59:31.448Z,2.15
2018-09-15T14:01:59.076Z,2.00
2018-09-15T14:04:26.764Z,2.27
2018-09-15T14:06:54.521Z,2.30
2018-09-15T14:09:22.254Z,2.65
2018-09-15T14:11:49.988Z,2.22
2018-09-15T14:14:17.675Z,2.27
2018-09-15T14:16:45.393Z,2.17
2018-09-15T14:19:13.088Z,2.27
2018-09-15T14:21:40.768Z,2.10
2018-09-15T14:24:08.542Z,2.35
2018-09-15T14:26:36.118Z,2.27
2018-09-15T14:29:03.695Z,2.30
2018-09-15T14:31:31.378Z,2.20
2018-09-15T14:33:59.102Z,2.50
2018-09-15T14:36:26.813Z,2.40
2018-09-15T14:38:54.589Z,2.40
2018-09-15T14:41:22.332Z,2.60
2018-09-15T14:43:50.013Z,2.27
2018-09-15T14:46:17.602Z,2.20
2018-09-15T14:48:45.293Z,2.40
2018-09-15T14:51:13.004Z,2.30
2018-09-15T14:53:40.788Z,2.27
2018-09-15T14:56:09.040Z,1.98
2018-09-15T14:58:36.778Z,2.20
2018-09-15T15:01:04.372Z,1.90
2018-09-15T15:03:31.973Z,2.10
2018-09-15T15:05:59.665Z,1.75
2018-09-15T15:08:27.341Z,2.25
2018-09-15T15:10:55.162Z,1.70
2018-09-15T15:13:22.874Z,2.05
2018-09-15T15:15:50.582Z,2.47
2018-09-15T15:18:18.316Z,2.55
2018-09-15T15:20:45.995Z,2.25
2018-09-15T15:23:13.947Z,2.35
2018-09-15T15:25:41.651Z,2.70
2018-09-15T15:28:09.347Z,2.83
2018-09-15T15:30:37.222Z,2.30
2018-09-15T15:33:04.797Z,2.02
2018-09-15T15:35:32.610Z,2.52
2018-09-15T15:38:00.244Z,2.30
2018-09-15T15:40:27.948Z,2.40
2018-09-15T15:42:55.635Z,2.60
2018-09-15T15:45:23.201Z,2.37
2018-09-15T15:47:50.901Z,2.35
2018-09-15T15:50:18.586Z,2.47
2018-09-15T15:52:46.313Z,2.62
2018-09-15T15:55:13.886Z,2.70
2018-09-15T15:57:41.564Z,2.40
2018-09-15T16:00:09.331Z,2.40
2018-09-15T16:02:37.077Z,2.10
2018-09-15T16:05:04.893Z,2.37
2018-09-15T16:07:32.619Z,1.97
2018-09-15T16:10:00.327Z,2.37
2018-09-15T16:12:27.893Z,2.50
2018-09-15T16:14:55.559Z,3.43
2018-09-15T16:17:23.260Z,4.23
2018-09-15T16:19:50.928Z,3.30
2018-09-15T16:22:18.648Z,2.80
2018-09-15T16:24:46.295Z,2.83
2018-09-15T16:27:13.994Z,2.70
2018-09-15T16:29:41.632Z,2.97
2018-09-15T16:32:09.394Z,3.23
2018-09-15T16:34:37.090Z,3.03
2018-09-15T16:37:04.845Z,2.70
2018-09-15T16:39:32.407Z,2.53
2018-09-15T16:42:00.084Z,3.33
2018-09-15T16:44:27.639Z,3.20
2018-09-15T16:46:55.353Z,2.70
2018-09-15T16:49:23.183Z,2.60
2018-09-15T16:51:50.789Z,3.73
2018-09-15T16:54:27.822Z,3.00
2018-09-15T16:56:55.556Z,3.00
2018-09-15T16:59:23.293Z,3.10
2018-09-15T17:01:50.975Z,3.13
2018-09-15T17:04:18.707Z,5.10
2018-09-15T17:06:46.440Z,4.80
2018-09-15T17:09:14.137Z,3.83
2018-09-15T17:11:41.859Z,4.53
2018-09-15T17:14:09.574Z,4.53
2018-09-15T17:16:37.361Z,3.73
2018-09-15T17:19:05.505Z,3.40
2018-09-15T17:21:42.541Z,3.33
2018-09-15T17:24:10.266Z,3.30
2018-09-15T17:26:37.974Z,4.53
2018-09-15T17:29:05.547Z,4.47
2018-09-15T17:31:33.383Z,3.63
2018-09-15T17:34:01.104Z,3.30
2018-09-15T17:36:28.870Z,16.43
2018-09-15T17:38:56.571Z,8.30
2018-09-15T17:41:24.287Z,5.83
2018-09-15T17:43:51.956Z,3.90
2018-09-15T17:46:19.533Z,3.60
2018-09-15T17:48:47.199Z,3.67
2018-09-15T17:51:14.966Z,3.73
2018-09-15T17:53:42.661Z,3.83
2018-09-15T17:56:10.348Z,4.30
2018-09-15T17:58:38.021Z,4.33
2018-09-15T18:01:05.900Z,3.80
2018-09-15T18:03:33.694Z,4.53
2018-09-15T18:06:01.298Z,4.40
2018-09-15T18:08:29.392Z,5.47
2018-09-15T18:10:56.989Z,5.20
2018-09-15T18:13:24.537Z,5.90
2018-09-15T18:15:52.179Z,5.40
2018-09-15T18:18:20.790Z,4.93
2018-09-15T18:20:48.497Z,4.47
2018-09-15T18:23:16.092Z,4.03
2018-09-15T18:25:43.771Z,3.93
2018-09-15T18:28:11.516Z,4.00
2018-09-15T18:30:39.046Z,3.63
2018-09-15T18:33:06.671Z,4.10
2018-09-15T18:35:34.348Z,3.50
2018-09-15T18:38:02.023Z,3.77
2018-09-15T18:40:29.770Z,3.87
2018-09-15T18:42:57.517Z,3.70
2018-09-15T18:45:25.207Z,4.10
2018-09-15T18:47:52.882Z,4.07
2018-09-15T18:50:20.610Z,3.90
2018-09-15T18:52:48.303Z,4.07
2018-09-15T18:55:15.904Z,3.80
2018-09-15T18:57:43.490Z,4.30
2018-09-15T19:00:11.255Z,3.93
2018-09-15T19:02:38.911Z,4.80
2018-09-15T19:05:06.705Z,4.47
2018-09-15T19:07:34.414Z,4.60
2018-09-15T19:10:02.160Z,4.90
2018-09-15T19:12:29.875Z,4.13
2018-09-15T19:14:57.505Z,4.60
2018-09-15T19:17:25.263Z,4.93
2018-09-15T19:19:52.996Z,4.87
2018-09-15T19:22:20.679Z,4.63
2018-09-15T19:24:48.419Z,5.00
2018-09-15T19:27:16.147Z,4.90
2018-09-15T19:29:43.842Z,5.30
2018-09-15T19:32:11.594Z,5.23
2018-09-15T19:34:39.329Z,4.70
2018-09-15T19:37:06.943Z,4.33
2018-09-15T19:39:34.644Z,5.20
2018-09-15T19:42:02.496Z,4.67
2018-09-15T19:44:30.188Z,5.00
2018-09-15T19:46:57.908Z,4.63
2018-09-15T19:49:25.549Z,4.40
2018-09-15T19:51:53.310Z,4.40
2018-09-15T19:54:20.843Z,4.10
2018-09-15T19:56:48.621Z,3.87
2018-09-15T19:59:16.422Z,3.60
2018-09-15T20:01:44.070Z,4.13
2018-09-15T20:04:11.900Z,4.10
2018-09-15T20:06:39.618Z,4.97
2018-09-15T20:09:08.381Z,4.57
2018-09-15T20:11:35.945Z,5.45
2018-09-15T20:14:03.709Z,4.77
2018-09-15T20:16:30.840Z,5.53
2018-09-15T20:18:57.471Z,5.00
2018-09-15T20:21:24.039Z,5.50
2018-09-15T20:23:51.818Z,4.33
2018-09-15T20:26:19.530Z,4.47
2018-09-15T20:28:47.320Z,5.67
2018-09-15T20:31:15.441Z,5.60
2018-09-15T20:33:43.381Z,7.00
2018-09-15T20:36:11.035Z,6.13
2018-09-15T20:38:38.986Z,6.90
2018-09-15T20:41:07.023Z,6.63
2018-09-15T20:43:34.730Z,6.90
2018-09-15T20:46:02.554Z,5.93
2018-09-15T20:48:30.627Z,6.67
2018-09-15T20:50:58.436Z,6.87
2018-09-15T20:53:26.348Z,7.43
2018-09-15T20:55:54.041Z,6.17
2018-09-15T20:58:22.549Z,6.40
2018-09-15T21:00:51.259Z,6.47
2018-09-15T21:03:19.125Z,5.83
2018-09-15T21:05:46.866Z,5.93
2018-09-15T21:08:14.388Z,4.90
2018-09-15T21:10:42.149Z,5.77
2018-09-15T21:13:10.289Z,5.53
2018-09-15T21:15:38.016Z,5.73
2018-09-15T21:18:05.864Z,6.10
2018-09-15T21:20:34.070Z,5.70
2018-09-15T21:23:02.040Z,6.57
2018-09-15T21:25:30.060Z,5.67
2018-09-15T21:27:58.976Z,5.90
2018-09-15T21:30:27.098Z,6.30
2018-09-15T21:32:54.985Z,5.87
2018-09-15T21:35:22.963Z,5.23
2018-09-15T21:37:51.169Z,6.27
2018-09-15T21:40:18.870Z,6.73
2018-09-15T21:42:46.605Z,5.40
2018-09-15T21:45:15.654Z,5.53
2018-09-15T21:47:43.674Z,5.93
2018-09-15T21:50:11.340Z,7.07
2018-09-15T21:52:39.296Z,7.27
2018-09-15T21:55:07.826Z,6.40
2018-09-15T21:57:35.810Z,6.70
2018-09-15T22:00:05.314Z,7.40
2018-09-15T22:02:33.359Z,5.10
2018-09-15T22:05:00.910Z,6.40
2018-09-15T22:07:28.594Z,5.43
2018-09-15T22:09:56.306Z,7.03
2018-09-15T22:12:23.956Z,5.70
2018-09-15T22:14:51.682Z,6.57
2018-09-15T22:17:19.876Z,5.77
2018-09-15T22:19:48.104Z,4.63
2018-09-15T22:22:15.877Z,5.40
2018-09-15T22:24:43.581Z,5.30
2018-09-15T22:27:11.274Z,4.90
2018-09-15T22:29:38.929Z,5.10
2018-09-15T22:32:06.809Z,5.90
2018-09-15T22:34:34.490Z,5.20
2018-09-15T22:37:02.157Z,4.70
2018-09-15T22:39:29.898Z,5.10
2018-09-15T22:41:57.590Z,4.70
2018-09-15T22:44:25.243Z,5.50
2018-09-15T22:46:53.175Z,5.13
2018-09-15T22:49:20.731Z,5.23
2018-09-15T22:51:48.459Z,6.50
2018-09-15T22:54:16.543Z,6.00
2018-09-15T22:56:45.206Z,6.20
2018-09-15T22:59:13.730Z,5.40
2018-09-15T23:01:41.500Z,6.77
2018-09-15T23:04:11.129Z,5.73
2018-09-15T23:06:38.834Z,5.40
2018-09-15T23:09:08.198Z,5.87
2018-09-15T23:11:35.774Z,6.60
2018-09-15T23:14:03.555Z,6.17
2018-09-15T23:16:31.249Z,5.20
2018-09-15T23:18:58.961Z,5.73
2018-09-15T23:21:26.650Z,5.70
2018-09-15T23:23:54.176Z,5.70
2018-09-15T23:26:21.755Z,5.23
2018-09-15T23:28:49.575Z,5.47
2018-09-15T23:31:17.266Z,5.30
2018-09-15T23:33:44.949Z,6.73
2018-09-15T23:36:12.652Z,5.77
2018-09-15T23:38:40.471Z,6.30
2018-09-15T23:41:08.789Z,5.87
2018-09-15T23:43:36.814Z,5.83
2018-09-15T23:46:04.474Z,6.13
2018-09-15T23:48:32.190Z,6.57
2018-09-15T23:50:59.841Z,6.23
2018-09-15T23:53:27.511Z,5.77
2018-09-15T23:55:55.439Z,6.43
2018-09-15T23:58:23.185Z,6.70
